सभी
Cleve Airport (Cleve, South Australia) CVC मौसम
|
Cleve, South Australia (CVC / YCEE)
स्वच्छ आकाश
तेज हवाएं |
|
18 °C |
There is no TAF data available at CVC or any nearby airports.
Recent CVC METAR history
| Date | Time (ACST) | Flight Rules | Wind Dir. | Speed | Type | Height AGL (ft) | Visibility | Temp (°C) | Temp (°F) | Dew Point (°C) | Dew Point (°F) | Rel. Humid. | Pressure | Density Altitude | Remarks |
|---|---|---|---|---|---|---|---|---|---|---|---|---|---|---|---|
| 04-मई | 13:30 | n/a | 250° | 13 kt | Missing | 18° | 64° | 9° | 48° | 56% | 1016 mb | 867 ft | |||
| 04-मई | 12:30 | n/a | 260° | 12 kt | Missing | 18° | 64° | 11° | 51° | 64% | 1017 mb | 837 ft | |||
| 04-मई | 11:30 | n/a | 260° | 13 kt | Missing | 17° | 62° | 11° | 51° | 68% | 1017 mb | 717 ft | |||
| 04-मई | 10:30 | n/a | 280° | 11 kt | Missing | 15° | 59° | 12° | 53° | 82% | 1017 mb | 477 ft | |||
| 04-मई | 09:30 | n/a | 290° | 13 kt | Missing | 14° | 57° | 12° | 53° | 88% | 1017 mb | 357 ft | |||
| 04-मई | 08:30 | n/a | 290° | 11 kt | Missing | 13° | 55° | 11° | 51° | 88% | 1016 mb | 267 ft | |||
| 04-मई | 07:30 | n/a | 290° | 11 kt | Missing | 12° | 53° | 10° | 50° | 88% | 1015 mb | 176 ft | |||
| 04-मई | 06:30 | n/a | 300° | 11 kt | Missing | 11° | 51° | 10° | 50° | 94% | 1015 mb | 56 ft | |||
| 04-मई | 05:30 | n/a | 300° | 12 kt | Missing | 11° | 51° | 9° | 48° | 87% | 1014 mb | 86 ft | |||
| 04-मई | 04:30 | n/a | 310° | 12 kt | Missing | 11° | 51° | 10° | 50° | 94% | 1014 mb | 86 ft | |||
| 04-मई | 03:30 | n/a | 310° | 12 kt | Missing | 12° | 53° | 10° | 50° | 88% | 1014 mb | 206 ft | |||
| 04-मई | 02:30 | n/a | 300° | 12 kt | Missing | 11° | 51° | 10° | 50° | 94% | 1014 mb | 86 ft | |||
| 04-मई | 01:30 | n/a | 310° | 13 kt | Missing | 12° | 53° | 10° | 50° | 88% | 1014 mb | 206 ft | |||
| 04-मई | 00:30 | n/a | 310° | 13 kt | Missing | 12° | 53° | 10° | 50° | 88% | 1014 mb | 206 ft | |||
| 03-मई | 23:30 | n/a | 310° | 14 kt | Missing | 12° | 53° | 10° | 50° | 88% | 1014 mb | 206 ft | |||
| 03-मई | 22:30 | n/a | 310° | 14 kt | Missing | 12° | 53° | 10° | 50° | 88% | 1014 mb | 206 ft | |||
| 03-मई | 21:30 | n/a | 310° | 14 kt | Missing | 13° | 55° | 9° | 48° | 77% | 1014 mb | 326 ft | |||
| 03-मई | 20:30 | n/a | 300° | 15 kt | Missing | 13° | 55° | 9° | 48° | 77% | 1014 mb | 326 ft | |||
| 03-मई | 19:30 | n/a | 310° | 13 kt | Missing | 13° | 55° | 9° | 48° | 77% | 1013 mb | 355 ft | |||
| 03-मई | 18:30 | n/a | 300° | 13 kt | Missing | 13° | 55° | 10° | 50° | 82% | 1013 mb | 355 ft | |||
| 03-मई | 17:30 | n/a | 290° | 13 kt | Missing | 13° | 55° | 10° | 50° | 82% | 1012 mb | 385 ft | |||
| 03-मई | 16:35 | n/a | 300° | 18 kt | Missing | 14° | 57° | 10° | 50° | 77% | 1012 mb | 505 ft | Wind gusting to 28 KT | ||
| 03-मई | 15:30 | n/a | 310° | 18 kt | Missing | 16° | 60° | 10° | 50° | 68% | 1011 mb | 774 ft | |||
| 03-मई | 14:31 | n/a | 300° | 21 kt | Missing | 16° | 60° | 9° | 48° | 63% | 1011 mb | 774 ft | Wind gusting to 31 KT |
लॉगिन
| Your browser is unsupported. अपना ब्राऊजर अपग्रेड करें |
